createdAt,value
2022-12-01T00:00:01.038Z,73.4
2022-12-01T00:01:01.136Z,73.3
2022-12-01T00:02:01.201Z,73.2
2022-12-01T00:03:01.323Z,73.3
2022-12-01T00:04:01.143Z,73.4
2022-12-01T00:05:01.146Z,74.2
2022-12-01T00:06:01.238Z,73.9
2022-12-01T00:07:01.867Z,73.9
2022-12-01T00:08:02.295Z,73.8
2022-12-01T00:09:02.174Z,73.8
2022-12-01T00:10:01.488Z,73.3
2022-12-01T00:11:01.103Z,73.6
2022-12-01T00:12:01.136Z,73.5
2022-12-01T00:13:01.098Z,73.2
2022-12-01T00:14:01.113Z,73.6
2022-12-01T00:15:01.221Z,73.5
2022-12-01T00:16:01.562Z,74.1
2022-12-01T00:17:01.181Z,74.2
2022-12-01T00:18:01.137Z,74.2
2022-12-01T00:19:01.135Z,74.5
2022-12-01T00:20:01.137Z,74.3
2022-12-01T00:21:01.162Z,74.3
2022-12-01T00:22:01.177Z,74.1
2022-12-01T00:23:01.069Z,74
2022-12-01T00:24:01.457Z,74
2022-12-01T00:25:01.077Z,74.2
2022-12-01T00:26:01.081Z,74.2
2022-12-01T00:27:01.079Z,73.8
2022-12-01T00:28:01.091Z,73.9
2022-12-01T00:29:01.097Z,73.7
2022-12-01T00:30:01.206Z,73.8
2022-12-01T00:31:01.129Z,74
2022-12-01T00:32:01.633Z,74.7
2022-12-01T00:33:01.059Z,75.2
2022-12-01T00:34:04.605Z,75.3
2022-12-01T00:35:01.143Z,75.3
2022-12-01T00:36:01.063Z,75.1
2022-12-01T00:37:01.159Z,74.3
2022-12-01T00:38:01.389Z,74.1
2022-12-01T00:39:01.403Z,74.3
2022-12-01T00:40:02.067Z,73.9
2022-12-01T00:41:01.055Z,74.1
2022-12-01T00:42:01.090Z,74.8
2022-12-01T00:43:01.083Z,74.7
2022-12-01T00:44:01.097Z,74.1
2022-12-01T00:45:04.084Z,74.1
2022-12-01T00:46:01.563Z,74
2022-12-01T00:47:02.103Z,73.9
2022-12-01T00:48:01.554Z,73.2
2022-12-01T00:49:01.246Z,73.1
2022-12-01T00:50:01.127Z,72.2
2022-12-01T00:51:01.054Z,72
2022-12-01T00:52:01.146Z,72
2022-12-01T00:53:01.151Z,71.9
2022-12-01T00:54:01.156Z,71.8
2022-12-01T00:55:01.449Z,71.7
2022-12-01T00:56:02.818Z,71.8
2022-12-01T00:57:01.099Z,72.1
2022-12-01T00:58:02.233Z,72.3
2022-12-01T00:59:01.092Z,72.5
2022-12-01T01:00:01.183Z,72.6
2022-12-01T01:01:06.820Z,72.4
2022-12-01T01:02:02.220Z,72.7
2022-12-01T01:03:01.102Z,73
2022-12-01T01:04:01.110Z,72.5
2022-12-01T01:05:01.127Z,72.5
2022-12-01T01:06:09.693Z,72.5
2022-12-01T01:07:01.148Z,72.5
2022-12-01T01:08:01.435Z,72.4
2022-12-01T01:09:01.437Z,72.5
2022-12-01T01:10:01.290Z,72.3
2022-12-01T01:11:12.885Z,72.5
2022-12-01T01:12:01.056Z,72.5
2022-12-01T01:13:01.072Z,72.4
2022-12-01T01:14:01.111Z,72.3
2022-12-01T01:15:01.095Z,72.1
2022-12-01T01:16:15.604Z,71.6
2022-12-01T01:17:01.237Z,70.9
2022-12-01T01:18:01.604Z,70.5
2022-12-01T01:19:02.194Z,70.1
2022-12-01T01:20:01.950Z,70.4
2022-12-01T01:21:01.915Z,70.4
2022-12-01T01:22:01.537Z,70.3
2022-12-01T01:23:01.143Z,70.7
2022-12-01T01:24:01.144Z,70.6
2022-12-01T01:25:01.220Z,70.7
2022-12-01T01:26:01.142Z,70.7
2022-12-01T01:27:01.448Z,70.6
2022-12-01T01:28:01.071Z,70.8
2022-12-01T01:29:01.054Z,70.9
2022-12-01T01:30:01.043Z,70.7
2022-12-01T01:31:01.211Z,70.3
2022-12-01T01:32:01.305Z,69.9
2022-12-01T01:33:01.094Z,69
2022-12-01T01:34:01.097Z,68.6
2022-12-01T01:35:01.130Z,66.7
2022-12-01T01:36:01.055Z,65.8
2022-12-01T01:37:01.520Z,65.1
2022-12-01T01:38:02.238Z,65
2022-12-01T01:39:01.167Z,64.8
2022-12-01T01:40:01.143Z,64.2
2022-12-01T01:41:01.159Z,64
2022-12-01T01:42:01.163Z,64.1
2022-12-01T01:43:01.156Z,64.5
2022-12-01T01:44:03.923Z,64.4
2022-12-01T01:45:01.911Z,64.5
2022-12-01T01:46:01.122Z,64.3
2022-12-01T01:47:00.764Z,64.6
2022-12-01T01:48:00.432Z,64.4
2022-12-01T01:49:00.069Z,63.8
2022-12-01T01:49:59.753Z,63.5
2022-12-01T01:51:01.781Z,62.7
2022-12-01T01:52:01.625Z,62.7
2022-12-01T01:53:01.934Z,62.8
2022-12-01T01:54:01.374Z,62.3
2022-12-01T01:55:01.380Z,61.6
2022-12-01T01:56:01.412Z,61.7
2022-12-01T01:57:01.435Z,61.5
2022-12-01T01:58:01.158Z,61.2
2022-12-01T01:59:01.383Z,61
2022-12-01T02:00:01.071Z,60.8
2022-12-01T02:01:01.170Z,60.3
2022-12-01T02:02:02.025Z,59.9
2022-12-01T02:03:01.604Z,59.8
2022-12-01T02:04:02.120Z,59.7
2022-12-01T02:05:01.466Z,59.8
2022-12-01T02:06:04.809Z,60.1
2022-12-01T02:07:01.108Z,60.1
2022-12-01T02:08:01.231Z,60.2
2022-12-01T02:09:01.120Z,60.6
2022-12-01T02:10:01.148Z,60.6
2022-12-01T02:11:01.139Z,60
2022-12-01T02:12:01.144Z,59.6
2022-12-01T02:13:01.149Z,59.8
2022-12-01T02:14:00.731Z,59.9
2022-12-01T02:15:00.791Z,59.4
2022-12-01T02:16:00.541Z,59.2
2022-12-01T02:17:00.553Z,59.4
2022-12-01T02:18:00.366Z,59.5
2022-12-01T02:19:00.166Z,59.6
2022-12-01T02:19:59.838Z,59.7
2022-12-01T02:21:02.578Z,59.5
2022-12-01T02:22:01.316Z,59.6
2022-12-01T02:23:01.498Z,60
2022-12-01T02:24:01.300Z,60.1
2022-12-01T02:25:02.426Z,59.9
2022-12-01T02:26:02.513Z,59.8
2022-12-01T02:27:01.133Z,59.9
2022-12-01T02:28:01.120Z,59.5
2022-12-01T02:29:01.136Z,59.5
2022-12-01T02:30:01.138Z,59.7
2022-12-01T02:31:01.206Z,59.5
2022-12-01T02:32:01.545Z,59.4
2022-12-01T02:33:03.939Z,59.6
2022-12-01T02:34:01.863Z,59.4
2022-12-01T02:35:01.079Z,59.2
2022-12-01T02:36:01.042Z,58.8
2022-12-01T02:37:01.097Z,58.8
2022-12-01T02:38:01.104Z,58.3
2022-12-01T02:39:01.064Z,57.7
2022-12-01T02:40:01.075Z,57.7
2022-12-01T02:41:01.294Z,57.8
2022-12-01T02:42:00.997Z,57.9
2022-12-01T02:43:01.498Z,57.9
2022-12-01T02:44:00.935Z,58
2022-12-01T02:45:00.608Z,58.2
2022-12-01T02:46:00.437Z,57.9
2022-12-01T02:47:04.778Z,57.6
2022-12-01T02:48:01.344Z,57.7
2022-12-01T02:49:02.589Z,57.7
2022-12-01T02:50:01.361Z,57.9
2022-12-01T02:51:01.108Z,58
2022-12-01T02:52:06.353Z,57.9
2022-12-01T02:53:01.476Z,57.9
2022-12-01T02:54:02.681Z,57.7
2022-12-01T02:55:01.156Z,57.6
2022-12-01T02:56:01.110Z,57.4
2022-12-01T02:57:08.950Z,57.2
2022-12-01T02:58:01.848Z,56.2
2022-12-01T02:59:01.046Z,56
2022-12-01T03:00:01.518Z,55.8
2022-12-01T03:01:01.220Z,55.3
2022-12-01T03:02:13.157Z,55.5
2022-12-01T03:03:02.262Z,55.2
2022-12-01T03:04:01.147Z,55.2
2022-12-01T03:05:01.046Z,55.2
2022-12-01T03:06:01.056Z,55.3
2022-12-01T03:07:16.122Z,55.4
2022-12-01T03:08:01.514Z,55.4
2022-12-01T03:09:01.462Z,54.9
2022-12-01T03:10:01.134Z,54.9
2022-12-01T03:11:01.093Z,54.7
2022-12-01T03:12:01.105Z,54.8
2022-12-01T03:13:01.104Z,54.7
2022-12-01T03:14:01.038Z,54.6
2022-12-01T03:15:01.037Z,54.6
2022-12-01T03:16:01.424Z,54.6
2022-12-01T03:17:01.363Z,54.6
2022-12-01T03:18:03.934Z,54.1
2022-12-01T03:19:02.265Z,53.8
2022-12-01T03:20:01.157Z,53.9
2022-12-01T03:21:01.775Z,53.6
2022-12-01T03:22:01.797Z,53.5
2022-12-01T03:23:01.737Z,53.3
2022-12-01T03:24:01.358Z,52.9
2022-12-01T03:25:02.533Z,52.4
2022-12-01T03:26:01.192Z,51.2
2022-12-01T03:27:02.278Z,51
2022-12-01T03:28:20.616Z,51.2
2022-12-01T03:29:02.427Z,51
2022-12-01T03:30:01.099Z,50.6
2022-12-01T03:31:01.238Z,50.5
2022-12-01T03:32:01.144Z,50
2022-12-01T03:33:01.144Z,49.6
2022-12-01T03:34:01.793Z,48.8
2022-12-01T03:35:01.144Z,48.9
2022-12-01T03:36:01.293Z,48.9
2022-12-01T03:37:01.295Z,48.6
2022-12-01T03:38:01.058Z,48.2
2022-12-01T03:39:01.167Z,48.1
2022-12-01T03:40:01.771Z,48.1
2022-12-01T03:41:01.069Z,47.5
2022-12-01T03:42:01.279Z,46.8
2022-12-01T03:43:01.088Z,46.5
2022-12-01T03:44:01.130Z,46.7
2022-12-01T03:45:01.476Z,46.8
2022-12-01T03:46:01.167Z,46.6
2022-12-01T03:47:03.941Z,46.4
2022-12-01T03:48:01.111Z,46.3
2022-12-01T03:49:00.570Z,46
2022-12-01T03:50:00.202Z,46
2022-12-01T03:50:59.792Z,46
2022-12-01T03:52:01.969Z,46.1
2022-12-01T03:53:01.564Z,45.7
2022-12-01T03:54:04.590Z,45.7
2022-12-01T03:55:01.887Z,45.9
2022-12-01T03:56:01.719Z,46.2
2022-12-01T03:57:02.716Z,46.2
2022-12-01T03:58:01.471Z,46.3
2022-12-01T03:59:01.145Z,46.3
2022-12-01T04:00:01.855Z,46.5
2022-12-01T04:01:01.172Z,46.4
2022-12-01T04:02:01.213Z,46.1
2022-12-01T04:03:01.994Z,45.2
2022-12-01T04:04:00.906Z,44.7
2022-12-01T04:05:01.132Z,44.3
2022-12-01T04:06:02.369Z,43.8
2022-12-01T04:07:01.577Z,43.1
2022-12-01T04:08:01.212Z,42.8
2022-12-01T04:09:01.973Z,42.7
2022-12-01T04:10:01.217Z,42.9
2022-12-01T04:11:01.189Z,42.7
2022-12-01T04:12:01.532Z,42.5
2022-12-01T04:13:01.199Z,42.5
2022-12-01T04:14:01.070Z,42.5
2022-12-01T04:15:01.093Z,41.2
2022-12-01T04:16:01.150Z,41.1
2022-12-01T04:17:01.099Z,41.1
2022-12-01T04:18:01.115Z,40.8
2022-12-01T04:19:01.113Z,40.9
2022-12-01T04:20:01.109Z,40.9
2022-12-01T04:21:01.142Z,40.6
2022-12-01T04:22:01.141Z,40.5
2022-12-01T04:23:00.838Z,40.6
2022-12-01T04:24:00.517Z,40.6
2022-12-01T04:25:00.251Z,40.5
2022-12-01T04:25:59.919Z,40.1
2022-12-01T04:26:59.691Z,40.1
2022-12-01T04:28:04.386Z,40.2
2022-12-01T04:29:02.064Z,40.2
2022-12-01T04:30:02.626Z,40.2
2022-12-01T04:31:01.122Z,40.4
2022-12-01T04:32:01.092Z,40.3
2022-12-01T04:33:06.579Z,40.2
2022-12-01T04:34:01.047Z,40
2022-12-01T04:35:01.121Z,40.1
2022-12-01T04:36:01.175Z,40.3
2022-12-01T04:37:01.113Z,40.3
2022-12-01T04:38:10.112Z,40.1
2022-12-01T04:39:01.133Z,39.9
2022-12-01T04:40:02.520Z,39.7
2022-12-01T04:41:01.859Z,39.5
2022-12-01T04:42:01.449Z,39.6
2022-12-01T04:43:12.362Z,39.2
2022-12-01T04:44:01.063Z,38.9
2022-12-01T04:45:00.754Z,39
2022-12-01T04:46:00.370Z,38.9
2022-12-01T04:47:00.558Z,38.9
2022-12-01T04:48:14.205Z,39.1
2022-12-01T04:49:01.771Z,39.1
2022-12-01T04:50:01.948Z,39.1
2022-12-01T04:51:01.628Z,38.6
2022-12-01T04:52:01.723Z,38.6
2022-12-01T04:53:01.313Z,38.8
2022-12-01T04:54:01.526Z,38.9
2022-12-01T04:55:02.453Z,38.8
2022-12-01T04:56:01.227Z,38.6
2022-12-01T04:57:01.154Z,38.4
2022-12-01T04:58:01.144Z,37.7
2022-12-01T04:59:01.443Z,37.4
2022-12-01T05:00:00.841Z,37.4
2022-12-01T05:01:00.640Z,37.2
2022-12-01T05:02:00.569Z,37.5
2022-12-01T05:03:00.385Z,37.5
2022-12-01T05:04:00.660Z,37.6
2022-12-01T05:05:00.269Z,37.6
2022-12-01T05:05:59.967Z,37.3
2022-12-01T05:06:59.784Z,37.3
2022-12-01T05:08:01.887Z,37.3
2022-12-01T05:09:01.568Z,37.3
2022-12-01T05:10:01.201Z,37.5
2022-12-01T05:11:01.134Z,37.6
2022-12-01T05:12:01.141Z,37.6
2022-12-01T05:13:01.047Z,37.6
2022-12-01T05:14:01.192Z,37.5
2022-12-01T05:15:01.573Z,37.6
2022-12-01T05:16:01.377Z,37.2
2022-12-01T05:17:01.108Z,37.1
2022-12-01T05:18:01.211Z,37.1
2022-12-01T05:19:01.261Z,37.2
2022-12-01T05:20:01.164Z,37.2
2022-12-01T05:21:01.161Z,37
2022-12-01T05:22:01.173Z,36.5
2022-12-01T05:23:06.064Z,36.4
2022-12-01T05:24:01.038Z,36.2
2022-12-01T05:25:01.189Z,36.2
2022-12-01T05:26:01.258Z,36.1
2022-12-01T05:27:01.283Z,36.2
2022-12-01T05:28:01.134Z,36.5
2022-12-01T05:29:01.147Z,36.6
2022-12-01T05:30:03.567Z,36.6
2022-12-01T05:31:01.561Z,36.8
2022-12-01T05:32:01.319Z,36.8
2022-12-01T05:33:02.259Z,36.7
2022-12-01T05:34:01.059Z,36.6
2022-12-01T05:35:01.250Z,36.6
2022-12-01T05:36:01.182Z,36.6
2022-12-01T05:37:00.802Z,36.5
2022-12-01T05:38:06.074Z,36.4
2022-12-01T05:39:01.518Z,36.5
2022-12-01T05:40:02.754Z,36.4
2022-12-01T05:41:01.187Z,36.5
2022-12-01T05:42:01.133Z,36.4
2022-12-01T05:43:01.143Z,36.3
2022-12-01T05:44:01.133Z,36.1
2022-12-01T05:45:01.135Z,36.3
2022-12-01T05:46:01.216Z,36.2
2022-12-01T05:47:01.157Z,36.4
2022-12-01T05:48:01.329Z,36.3
2022-12-01T05:49:01.054Z,36.4
2022-12-01T05:50:05.533Z,35.9
2022-12-01T05:51:01.071Z,35.8
2022-12-01T05:52:01.088Z,35.4
2022-12-01T05:53:01.093Z,35.4
2022-12-01T05:54:01.345Z,35.4
2022-12-01T05:55:01.907Z,35.5
2022-12-01T05:56:01.243Z,35.6
2022-12-01T05:57:01.137Z,35.6
2022-12-01T05:58:01.126Z,35.6
2022-12-01T05:59:01.122Z,35.3
2022-12-01T06:00:01.135Z,35.3
2022-12-01T06:01:01.560Z,35.3
2022-12-01T06:02:01.296Z,35.4
2022-12-01T06:03:01.954Z,35.6
2022-12-01T06:04:03.191Z,35.7
2022-12-01T06:05:01.066Z,35.8
2022-12-01T06:06:01.134Z,35.7
2022-12-01T06:07:01.105Z,35.8
2022-12-01T06:08:01.210Z,35.6
2022-12-01T06:09:06.048Z,35.5
2022-12-01T06:10:00.773Z,35.7
2022-12-01T06:11:00.367Z,35.6
2022-12-01T06:12:00.124Z,35.6
2022-12-01T06:12:59.836Z,35.7
2022-12-01T06:14:10.126Z,35.6
2022-12-01T06:15:01.564Z,35.4
2022-12-01T06:16:01.469Z,35.4
2022-12-01T06:17:01.495Z,35.2
2022-12-01T06:18:01.561Z,35.3
2022-12-01T06:19:12.688Z,35.3
2022-12-01T06:20:01.565Z,35.3
2022-12-01T06:21:01.245Z,35.5
2022-12-01T06:22:01.982Z,35.6
2022-12-01T06:23:02.012Z,35.5
2022-12-01T06:24:15.667Z,35.5
2022-12-01T06:25:03.771Z,35.5
2022-12-01T06:26:01.476Z,35.6
2022-12-01T06:27:01.082Z,35.6
2022-12-01T06:28:01.097Z,35.7
2022-12-01T06:29:01.162Z,35.7
2022-12-01T06:30:02.148Z,35.8
2022-12-01T06:31:03.714Z,35.9
2022-12-01T06:32:01.220Z,36.1
2022-12-01T06:33:01.142Z,36
2022-12-01T06:34:01.351Z,36
2022-12-01T06:35:01.176Z,36
2022-12-01T06:36:01.383Z,36.1
2022-12-01T06:37:01.438Z,35.9
2022-12-01T06:38:01.163Z,35.9
2022-12-01T06:39:02.141Z,35.7
2022-12-01T06:40:01.013Z,35.8
2022-12-01T06:41:01.286Z,36
2022-12-01T06:42:00.677Z,36
2022-12-01T06:43:00.622Z,36.2
2022-12-01T06:44:00.301Z,36.3
2022-12-01T06:44:59.899Z,36.3
2022-12-01T06:46:02.100Z,36.4
2022-12-01T06:47:00.916Z,36.4
2022-12-01T06:48:00.612Z,36.2
2022-12-01T06:49:00.316Z,36.1
2022-12-01T06:50:00.204Z,36
2022-12-01T06:51:00.095Z,36.1
2022-12-01T06:52:01.047Z,36.1
2022-12-01T06:53:00.780Z,35.8
2022-12-01T06:54:05.254Z,35.9
2022-12-01T06:55:01.468Z,35.9
2022-12-01T06:56:01.380Z,35.8
2022-12-01T06:57:01.213Z,35.7
2022-12-01T06:58:02.772Z,35.8
2022-12-01T06:59:01.192Z,35.5
2022-12-01T07:00:01.109Z,35.5
2022-12-01T07:01:04.171Z,35.5
2022-12-01T07:02:04.176Z,35.6
2022-12-01T07:03:01.211Z,35.6
2022-12-01T07:04:01.183Z,35.8
2022-12-01T07:05:01.140Z,36
2022-12-01T07:06:01.098Z,36.3
2022-12-01T07:07:01.112Z,36.4
2022-12-01T07:08:01.244Z,36.1
2022-12-01T07:09:01.160Z,35.9
2022-12-01T07:10:01.061Z,35.7
2022-12-01T07:11:04.339Z,35.7
2022-12-01T07:12:01.173Z,35.9
2022-12-01T07:13:01.319Z,35.8
2022-12-01T07:14:01.382Z,35.6
2022-12-01T07:15:01.252Z,35.6
2022-12-01T07:16:01.095Z,35.8
2022-12-01T07:17:01.346Z,35.9
2022-12-01T07:18:01.519Z,35.8
2022-12-01T07:19:02.124Z,36
2022-12-01T07:20:01.177Z,36.1
2022-12-01T07:21:01.182Z,36.3
2022-12-01T07:22:01.139Z,36.1
2022-12-01T07:23:01.140Z,36.2
2022-12-01T07:24:01.138Z,36
2022-12-01T07:25:01.537Z,36
2022-12-01T07:26:01.161Z,36.2
2022-12-01T07:27:01.061Z,36.1
2022-12-01T07:28:01.102Z,36.3
2022-12-01T07:29:01.166Z,36
2022-12-01T07:30:01.145Z,36
2022-12-01T07:31:08.868Z,36.1
2022-12-01T07:32:01.593Z,36.3
2022-12-01T07:33:01.110Z,36.5
2022-12-01T07:34:01.328Z,36.4
2022-12-01T07:35:00.873Z,36.3
2022-12-01T07:36:00.546Z,36.3
2022-12-01T07:37:00.213Z,36.1
2022-12-01T07:37:59.945Z,36
2022-12-01T07:38:59.595Z,36.1
2022-12-01T07:40:01.245Z,36.2
2022-12-01T07:41:01.176Z,36.4
2022-12-01T07:42:01.201Z,36.4
2022-12-01T07:43:01.212Z,36.4
2022-12-01T07:44:01.243Z,36.4
2022-12-01T07:45:01.771Z,36.4
2022-12-01T07:46:01.159Z,36.5
2022-12-01T07:47:01.912Z,36.5
2022-12-01T07:48:01.908Z,36.6
2022-12-01T07:49:00.627Z,36.7
2022-12-01T07:50:04.349Z,36.8
2022-12-01T07:51:01.926Z,37.1
2022-12-01T07:52:01.529Z,37.1
2022-12-01T07:53:01.507Z,37
2022-12-01T07:54:01.250Z,37.1
2022-12-01T07:55:07.836Z,36.9
2022-12-01T07:56:06.903Z,36.8
2022-12-01T07:57:01.277Z,36.6
2022-12-01T07:58:01.252Z,36.7
2022-12-01T07:59:01.393Z,36.7
2022-12-01T08:00:11.641Z,36.7
2022-12-01T08:01:02.261Z,36.6
2022-12-01T08:02:01.335Z,36.5
2022-12-01T08:03:02.485Z,36.7
2022-12-01T08:04:02.364Z,36.9
2022-12-01T08:05:13.552Z,36.9
2022-12-01T08:06:01.398Z,37
2022-12-01T08:07:01.183Z,36.9
2022-12-01T08:08:01.172Z,37
2022-12-01T08:09:01.121Z,37
2022-12-01T08:10:16.207Z,37.1
2022-12-01T08:11:01.141Z,37.1
2022-12-01T08:12:01.142Z,37.1
2022-12-01T08:13:01.143Z,37
2022-12-01T08:14:01.276Z,37.1
2022-12-01T08:15:01.157Z,36.7
2022-12-01T08:16:01.397Z,36.6
2022-12-01T08:17:01.140Z,36.6
2022-12-01T08:18:01.112Z,36.6
2022-12-01T08:19:01.117Z,36.8
2022-12-01T08:20:01.505Z,36.7
2022-12-01T08:21:02.166Z,36.8
2022-12-01T08:22:01.064Z,36.7
2022-12-01T08:23:01.113Z,36.9
2022-12-01T08:24:01.115Z,36.8
2022-12-01T08:25:01.125Z,36.9
2022-12-01T08:26:01.139Z,37
2022-12-01T08:27:01.516Z,37
2022-12-01T08:28:01.869Z,36.8
2022-12-01T08:29:01.138Z,36.9
2022-12-01T08:30:01.856Z,36.7
2022-12-01T08:31:01.475Z,36.8
2022-12-01T08:32:01.155Z,37
2022-12-01T08:33:01.081Z,37
2022-12-01T08:34:01.094Z,37.2
2022-12-01T08:35:01.126Z,37.3
2022-12-01T08:36:01.105Z,37.1
2022-12-01T08:37:01.084Z,36.9
2022-12-01T08:38:01.102Z,36.8
2022-12-01T08:39:01.110Z,36.9
2022-12-01T08:40:01.103Z,36.8
2022-12-01T08:41:00.892Z,36.9
2022-12-01T08:42:01.122Z,37
2022-12-01T08:43:01.139Z,36.9
2022-12-01T08:44:01.699Z,37
2022-12-01T08:45:01.201Z,36.6
2022-12-01T08:46:01.267Z,36.3
2022-12-01T08:47:01.180Z,36.1
2022-12-01T08:48:01.359Z,36.1
2022-12-01T08:49:01.979Z,35.9
2022-12-01T08:50:00.769Z,35.6
2022-12-01T08:51:00.526Z,35.1
2022-12-01T08:52:00.264Z,34.8
2022-12-01T08:53:00.390Z,34.9
2022-12-01T08:54:00.371Z,34.8
2022-12-01T08:55:00.082Z,34.9
2022-12-01T08:55:59.759Z,35
2022-12-01T08:57:02.173Z,35
2022-12-01T08:58:01.140Z,34.9
2022-12-01T08:59:01.122Z,34.3
2022-12-01T09:00:01.160Z,33.7
2022-12-01T09:01:01.401Z,34
2022-12-01T09:02:06.776Z,33.7
2022-12-01T09:03:01.209Z,33.8
2022-12-01T09:04:01.149Z,33.5
2022-12-01T09:05:01.892Z,32.8
2022-12-01T09:06:01.443Z,32.5
2022-12-01T09:07:01.449Z,32.1
2022-12-01T09:08:01.191Z,31.6
2022-12-01T09:09:04.022Z,31.3
2022-12-01T09:10:01.970Z,31.5
2022-12-01T09:11:01.097Z,31.5
2022-12-01T09:12:01.113Z,30.8
2022-12-01T09:13:01.114Z,30.6
2022-12-01T09:14:01.126Z,30.6
2022-12-01T09:15:00.802Z,30.6
2022-12-01T09:16:00.753Z,30.5
2022-12-01T09:17:00.736Z,30.5
2022-12-01T09:18:00.544Z,30.5
2022-12-01T09:19:00.251Z,30.5
2022-12-01T09:19:59.941Z,30.6
2022-12-01T09:20:59.630Z,30
2022-12-01T09:22:02.417Z,30.1
2022-12-01T09:23:01.323Z,30.4
2022-12-01T09:24:02.631Z,30.1
2022-12-01T09:25:02.098Z,29.5
2022-12-01T09:26:01.493Z,28.9
2022-12-01T09:27:01.245Z,28.8
2022-12-01T09:28:02.341Z,28.8
2022-12-01T09:29:02.315Z,28.5
2022-12-01T09:30:01.128Z,28.9
2022-12-01T09:31:01.181Z,29.3
2022-12-01T09:32:01.121Z,28.6
2022-12-01T09:33:01.149Z,28
2022-12-01T09:34:01.185Z,27.6
2022-12-01T09:35:01.154Z,27.5
2022-12-01T09:36:00.870Z,27.3
2022-12-01T09:37:01.443Z,27.3
2022-12-01T09:38:02.091Z,27.3
2022-12-01T09:39:01.076Z,27.4
2022-12-01T09:40:01.199Z,27.5
2022-12-01T09:41:03.608Z,27.6
2022-12-01T09:42:03.893Z,27.7
2022-12-01T09:43:01.803Z,27.5
2022-12-01T09:44:02.014Z,27.6
2022-12-01T09:45:02.121Z,27.2
2022-12-01T09:46:07.637Z,27.3
2022-12-01T09:47:01.180Z,27.1
2022-12-01T09:48:01.151Z,27.2
2022-12-01T09:49:01.144Z,27
2022-12-01T09:50:01.148Z,26.9
2022-12-01T09:51:10.626Z,27
2022-12-01T09:52:01.416Z,27
2022-12-01T09:53:01.051Z,27.1
2022-12-01T09:54:01.080Z,26.9
2022-12-01T09:55:01.081Z,26.6
2022-12-01T09:56:13.447Z,26.4
2022-12-01T09:57:01.074Z,26.4
2022-12-01T09:58:01.092Z,26.2
2022-12-01T09:59:01.103Z,26.1
2022-12-01T10:00:01.094Z,25.9
2022-12-01T10:01:15.533Z,26
2022-12-01T10:02:01.706Z,26.1
2022-12-01T10:03:01.121Z,26.1
2022-12-01T10:04:01.118Z,26.3
2022-12-01T10:05:01.342Z,26.2
2022-12-01T10:07:01.508Z,26.3
2022-12-01T10:08:01.230Z,26.4
2022-12-01T10:09:01.554Z,26
2022-12-01T10:10:02.132Z,26
2022-12-01T10:11:01.260Z,26.1
2022-12-01T10:12:01.076Z,26.1
2022-12-01T10:13:01.089Z,26.3
2022-12-01T10:14:01.093Z,26.1
2022-12-01T10:15:01.091Z,26.1
2022-12-01T10:16:01.170Z,25.2
2022-12-01T10:17:01.125Z,24.8
2022-12-01T10:18:01.502Z,24.5
2022-12-01T10:19:01.126Z,24.2
2022-12-01T10:20:01.056Z,24.3
2022-12-01T10:21:00.813Z,24.6
2022-12-01T10:22:00.405Z,24.6
2022-12-01T10:23:00.038Z,24
2022-12-01T10:23:59.710Z,24
2022-12-01T10:25:01.350Z,23.9
2022-12-01T10:26:02.588Z,24.1
2022-12-01T10:27:01.441Z,24.1
2022-12-01T10:28:01.222Z,24.1
2022-12-01T10:29:02.097Z,23.9
2022-12-01T10:30:00.856Z,23.8
2022-12-01T10:31:01.110Z,23.9
2022-12-01T10:32:01.180Z,24.2
2022-12-01T10:33:01.127Z,24.2
2022-12-01T10:34:01.230Z,24.5
2022-12-01T10:35:01.121Z,24.4
2022-12-01T10:36:01.064Z,24.2
2022-12-01T10:37:01.137Z,24
2022-12-01T10:38:01.315Z,23.9
2022-12-01T10:39:01.145Z,23.7
2022-12-01T10:40:01.166Z,23.8
2022-12-01T10:41:00.951Z,23.8
2022-12-01T10:42:01.134Z,23.4
2022-12-01T10:43:01.453Z,23.5
2022-12-01T10:44:01.097Z,23.5
2022-12-01T10:45:01.091Z,23.4
2022-12-01T10:46:01.134Z,23.5
2022-12-01T10:47:01.089Z,23.6
2022-12-01T10:48:01.101Z,23.1
2022-12-01T10:49:01.092Z,23.3
2022-12-01T10:50:01.105Z,23.2
2022-12-01T10:51:01.427Z,23.1
2022-12-01T10:52:01.109Z,22.8
2022-12-01T10:53:03.881Z,22.6
2022-12-01T10:54:01.141Z,22.7
2022-12-01T10:55:01.057Z,22.8
2022-12-01T10:56:01.475Z,22.7
2022-12-01T10:57:01.142Z,22.5
2022-12-01T10:58:06.193Z,22.4
2022-12-01T10:59:01.057Z,21.9
2022-12-01T11:00:01.065Z,22.2
2022-12-01T11:01:01.252Z,22.3
2022-12-01T11:02:01.665Z,22.1
2022-12-01T11:03:01.326Z,22.1
2022-12-01T11:04:01.164Z,22.2
2022-12-01T11:05:01.134Z,22
2022-12-01T11:06:01.134Z,21.7
2022-12-01T11:07:01.257Z,21.3
2022-12-01T11:08:02.875Z,21.1
2022-12-01T11:09:01.950Z,21
2022-12-01T11:10:01.046Z,21.1
2022-12-01T11:11:01.261Z,20.5
2022-12-01T11:12:01.143Z,20.6
2022-12-01T11:13:01.989Z,20.7
2022-12-01T11:14:01.531Z,20.8
2022-12-01T11:15:01.157Z,20.7
2022-12-01T11:16:01.059Z,20.5
2022-12-01T11:17:03.487Z,20.1
2022-12-01T11:18:01.755Z,20.1
2022-12-01T11:19:01.194Z,20.5
2022-12-01T11:20:01.973Z,20.7
2022-12-01T11:21:00.983Z,20.6
2022-12-01T11:22:05.208Z,20.1
2022-12-01T11:23:01.465Z,20
2022-12-01T11:24:01.501Z,19.8
2022-12-01T11:25:01.126Z,19.8
2022-12-01T11:26:01.123Z,19.4
2022-12-01T11:27:08.919Z,19
2022-12-01T11:28:01.219Z,19
2022-12-01T11:29:01.138Z,19
2022-12-01T11:30:01.145Z,19
2022-12-01T11:31:01.081Z,19
2022-12-01T11:32:11.968Z,19
2022-12-01T11:33:01.073Z,19
2022-12-01T11:34:01.081Z,19
2022-12-01T11:35:01.044Z,19
2022-12-01T11:36:01.755Z,18.6
2022-12-01T11:37:15.493Z,18.5
2022-12-01T11:39:02.210Z,18.8
2022-12-01T11:40:01.355Z,19
2022-12-01T11:41:00.915Z,19
2022-12-01T11:42:01.114Z,18.8
2022-12-01T11:43:01.046Z,18.7
2022-12-01T11:44:02.104Z,18.6
2022-12-01T11:45:01.048Z,18.5
2022-12-01T11:46:01.220Z,18.4
2022-12-01T11:47:22.063Z,18.3
2022-12-01T11:48:04.067Z,18.1
2022-12-01T11:49:01.061Z,18.3
2022-12-01T11:50:01.073Z,18.3
2022-12-01T11:51:01.074Z,18.1
2022-12-01T11:52:01.077Z,17.9
2022-12-01T11:53:01.085Z,17.9
2022-12-01T11:54:01.110Z,17.6
2022-12-01T11:55:05.586Z,17.5
2022-12-01T11:56:01.100Z,17.4
2022-12-01T11:58:01.249Z,17.6
2022-12-01T11:59:01.134Z,17.6
2022-12-01T12:00:01.207Z,17.5
2022-12-01T12:01:00.927Z,17.3
2022-12-01T12:02:01.165Z,17.4
2022-12-01T12:03:01.265Z,17.2
2022-12-01T12:04:01.983Z,17.4
2022-12-01T12:05:01.324Z,17.2
2022-12-01T12:06:18.227Z,17
2022-12-01T12:07:01.452Z,17.2
2022-12-01T12:08:02.021Z,16.7
2022-12-01T12:09:01.136Z,16.5
2022-12-01T12:10:01.779Z,16.6
2022-12-01T12:11:02.104Z,16.6
2022-12-01T12:12:01.939Z,16.6
2022-12-01T12:13:01.816Z,16.3
2022-12-01T12:14:02.463Z,16.4
2022-12-01T12:15:01.423Z,16.3
2022-12-01T12:16:01.053Z,16.2
2022-12-01T12:17:01.156Z,16.3
2022-12-01T12:18:01.351Z,16.4
2022-12-01T12:19:01.856Z,16.4
2022-12-01T12:20:09.951Z,16.6
2022-12-01T12:21:02.237Z,16.5
2022-12-01T12:22:02.089Z,16.4
2022-12-01T12:23:00.867Z,16.4
2022-12-01T12:24:00.835Z,16.2
2022-12-01T12:25:00.572Z,16
2022-12-01T12:26:00.200Z,15.5
2022-12-01T12:26:59.863Z,15.6
2022-12-01T12:28:02.544Z,15.4
2022-12-01T12:29:01.797Z,15.5
2022-12-01T12:30:01.132Z,15.7
2022-12-01T12:31:02.027Z,15.5
2022-12-01T12:32:05.500Z,15.6
2022-12-01T12:33:01.273Z,15.4
2022-12-01T12:33:59.921Z,15.1
2022-12-01T12:34:59.598Z,15
2022-12-01T12:36:01.205Z,14.7
2022-12-01T12:37:01.257Z,14.7
2022-12-01T12:38:01.063Z,14.5
2022-12-01T12:39:01.080Z,14.6
2022-12-01T12:40:01.481Z,14.7
2022-12-01T12:41:00.869Z,14.5
2022-12-01T12:42:01.187Z,14.6
2022-12-01T12:43:00.415Z,14.4
2022-12-01T12:44:00.107Z,14.4
2022-12-01T12:44:59.761Z,14.4
2022-12-01T12:46:01.893Z,14.4
2022-12-01T12:47:01.928Z,14.3
2022-12-01T12:48:01.258Z,14.3
2022-12-01T12:49:19.166Z,14.4
2022-12-01T12:50:01.132Z,14.3
2022-12-01T12:51:01.160Z,14
2022-12-01T12:52:06.681Z,14.3
2022-12-01T12:53:01.087Z,14.4
2022-12-01T12:54:01.182Z,14.5
2022-12-01T12:55:01.088Z,14.4
2022-12-01T12:56:02.143Z,14.3
2022-12-01T12:57:01.154Z,14.1
2022-12-01T12:58:02.689Z,14.2
2022-12-01T12:59:01.922Z,14.3
2022-12-01T13:00:01.096Z,14
2022-12-01T13:01:00.700Z,14.1
2022-12-01T13:02:00.487Z,13.9
2022-12-01T13:03:04.535Z,13.8
2022-12-01T13:04:01.149Z,13.7
2022-12-01T13:05:01.154Z,13.8
2022-12-01T13:06:01.652Z,14.9
2022-12-01T13:07:02.171Z,14.8
2022-12-01T13:08:08.367Z,14.5
2022-12-01T13:09:01.067Z,14.5
2022-12-01T13:10:01.204Z,14.5
2022-12-01T13:11:01.070Z,14.3
2022-12-01T13:12:01.066Z,14.1
2022-12-01T13:13:10.281Z,13.8
2022-12-01T13:14:01.461Z,13.9
2022-12-01T13:15:01.549Z,13.9
2022-12-01T13:16:01.247Z,13.8
2022-12-01T13:17:01.115Z,13.8
2022-12-01T13:18:13.822Z,13.6
2022-12-01T13:19:01.124Z,13.5
2022-12-01T13:20:01.125Z,13.6
2022-12-01T13:21:01.461Z,13.6
2022-12-01T13:22:01.291Z,13.6
2022-12-01T13:23:16.054Z,13.7
2022-12-01T13:24:01.605Z,13.7
2022-12-01T13:25:01.174Z,13.7
2022-12-01T13:26:01.732Z,13.8